sensor_id;sensor_type;location;lat;lon;timestamp;P1;durP1;ratioP1;P2;durP2;ratioP2
8488;SDS011;4281;45.772;12.852;2023-04-07T00:02:12;12.10;;;9.93;;
8488;SDS011;4281;45.772;12.852;2023-04-07T00:04:40;8.97;;;8.07;;
8488;SDS011;4281;45.772;12.852;2023-04-07T00:07:08;10.63;;;9.53;;
8488;SDS011;4281;45.772;12.852;2023-04-07T00:09:36;10.23;;;9.17;;
8488;SDS011;4281;45.772;12.852;2023-04-07T00:12:04;9.50;;;8.60;;
8488;SDS011;4281;45.772;12.852;2023-04-07T00:14:32;9.47;;;8.03;;
8488;SDS011;4281;45.772;12.852;2023-04-07T00:16:59;8.93;;;8.00;;
8488;SDS011;4281;45.772;12.852;2023-04-07T00:19:29;9.63;;;8.50;;
8488;SDS011;4281;45.772;12.852;2023-04-07T00:21:58;9.60;;;8.70;;
8488;SDS011;4281;45.772;12.852;2023-04-07T00:24:26;11.87;;;8.57;;
8488;SDS011;4281;45.772;12.852;2023-04-07T00:27:00;10.63;;;9.13;;
8488;SDS011;4281;45.772;12.852;2023-04-07T00:29:27;10.37;;;8.80;;
8488;SDS011;4281;45.772;12.852;2023-04-07T00:31:56;9.90;;;8.80;;
8488;SDS011;4281;45.772;12.852;2023-04-07T00:34:24;10.03;;;9.03;;
8488;SDS011;4281;45.772;12.852;2023-04-07T00:36:53;10.50;;;9.07;;
8488;SDS011;4281;45.772;12.852;2023-04-07T00:39:21;11.60;;;10.07;;
8488;SDS011;4281;45.772;12.852;2023-04-07T00:41:49;9.97;;;8.93;;
8488;SDS011;4281;45.772;12.852;2023-04-07T00:44:17;9.57;;;8.67;;
8488;SDS011;4281;45.772;12.852;2023-04-07T00:46:45;10.23;;;9.13;;
8488;SDS011;4281;45.772;12.852;2023-04-07T00:49:14;9.67;;;8.67;;
8488;SDS011;4281;45.772;12.852;2023-04-07T00:51:43;9.47;;;8.37;;
8488;SDS011;4281;45.772;12.852;2023-04-07T00:54:13;10.63;;;9.53;;
8488;SDS011;4281;45.772;12.852;2023-04-07T00:56:41;10.53;;;9.43;;
8488;SDS011;4281;45.772;12.852;2023-04-07T00:59:09;10.23;;;9.10;;
8488;SDS011;4281;45.772;12.852;2023-04-07T01:01:39;10.07;;;9.17;;
8488;SDS011;4281;45.772;12.852;2023-04-07T01:04:14;10.33;;;9.23;;
8488;SDS011;4281;45.772;12.852;2023-04-07T01:06:49;10.90;;;9.53;;
8488;SDS011;4281;45.772;12.852;2023-04-07T01:09:20;10.57;;;9.40;;
8488;SDS011;4281;45.772;12.852;2023-04-07T01:11:53;12.03;;;8.67;;
8488;SDS011;4281;45.772;12.852;2023-04-07T01:14:26;10.07;;;9.00;;
8488;SDS011;4281;45.772;12.852;2023-04-07T01:17:01;10.40;;;9.30;;
8488;SDS011;4281;45.772;12.852;2023-04-07T01:19:31;11.53;;;9.97;;
8488;SDS011;4281;45.772;12.852;2023-04-07T01:22:01;11.43;;;10.33;;
8488;SDS011;4281;45.772;12.852;2023-04-07T01:24:41;9.87;;;8.87;;
8488;SDS011;4281;45.772;12.852;2023-04-07T01:27:33;12.70;;;10.00;;
8488;SDS011;4281;45.772;12.852;2023-04-07T01:30:05;10.73;;;9.60;;
8488;SDS011;4281;45.772;12.852;2023-04-07T01:32:36;12.20;;;10.70;;
8488;SDS011;4281;45.772;12.852;2023-04-07T01:35:08;12.73;;;9.50;;
8488;SDS011;4281;45.772;12.852;2023-04-07T01:37:37;11.43;;;9.47;;
8488;SDS011;4281;45.772;12.852;2023-04-07T01:40:06;11.10;;;9.93;;
8488;SDS011;4281;45.772;12.852;2023-04-07T01:42:34;10.93;;;9.57;;
8488;SDS011;4281;45.772;12.852;2023-04-07T01:45:05;11.07;;;9.90;;
8488;SDS011;4281;45.772;12.852;2023-04-07T01:47:34;12.10;;;9.40;;
8488;SDS011;4281;45.772;12.852;2023-04-07T01:50:03;10.87;;;9.57;;
8488;SDS011;4281;45.772;12.852;2023-04-07T01:52:34;11.57;;;10.20;;
8488;SDS011;4281;45.772;12.852;2023-04-07T01:55:02;10.33;;;9.20;;
8488;SDS011;4281;45.772;12.852;2023-04-07T01:57:31;11.67;;;9.33;;
8488;SDS011;4281;45.772;12.852;2023-04-07T01:59:59;11.87;;;9.60;;
8488;SDS011;4281;45.772;12.852;2023-04-07T02:02:28;10.27;;;9.17;;
8488;SDS011;4281;45.772;12.852;2023-04-07T02:04:57;12.00;;;9.73;;
8488;SDS011;4281;45.772;12.852;2023-04-07T02:07:30;12.03;;;10.33;;
8488;SDS011;4281;45.772;12.852;2023-04-07T02:10:01;11.50;;;10.03;;
8488;SDS011;4281;45.772;12.852;2023-04-07T02:12:29;11.93;;;10.00;;
8488;SDS011;4281;45.772;12.852;2023-04-07T02:14:59;11.57;;;9.83;;
8488;SDS011;4281;45.772;12.852;2023-04-07T02:17:28;11.20;;;9.90;;
8488;SDS011;4281;45.772;12.852;2023-04-07T02:19:56;11.17;;;9.70;;
8488;SDS011;4281;45.772;12.852;2023-04-07T02:22:25;11.47;;;9.40;;
8488;SDS011;4281;45.772;12.852;2023-04-07T02:24:53;10.63;;;9.30;;
8488;SDS011;4281;45.772;12.852;2023-04-07T02:27:21;10.83;;;9.73;;
8488;SDS011;4281;45.772;12.852;2023-04-07T02:29:49;10.80;;;9.70;;
8488;SDS011;4281;45.772;12.852;2023-04-07T02:32:16;11.73;;;10.13;;
8488;SDS011;4281;45.772;12.852;2023-04-07T02:34:45;11.80;;;9.93;;
8488;SDS011;4281;45.772;12.852;2023-04-07T02:37:13;11.87;;;10.07;;
8488;SDS011;4281;45.772;12.852;2023-04-07T02:39:41;11.30;;;9.80;;
8488;SDS011;4281;45.772;12.852;2023-04-07T02:42:09;11.97;;;10.73;;
8488;SDS011;4281;45.772;12.852;2023-04-07T02:44:36;10.60;;;9.37;;
8488;SDS011;4281;45.772;12.852;2023-04-07T02:47:05;11.10;;;8.73;;
8488;SDS011;4281;45.772;12.852;2023-04-07T02:49:33;10.87;;;9.63;;
8488;SDS011;4281;45.772;12.852;2023-04-07T02:52:03;11.30;;;9.17;;
8488;SDS011;4281;45.772;12.852;2023-04-07T02:54:31;10.63;;;9.63;;
8488;SDS011;4281;45.772;12.852;2023-04-07T02:56:58;13.00;;;9.80;;
8488;SDS011;4281;45.772;12.852;2023-04-07T03:02:16;11.10;;;9.60;;
8488;SDS011;4281;45.772;12.852;2023-04-07T03:04:44;11.33;;;10.13;;
8488;SDS011;4281;45.772;12.852;2023-04-07T03:07:13;11.73;;;10.53;;
8488;SDS011;4281;45.772;12.852;2023-04-07T03:09:41;11.87;;;10.67;;
8488;SDS011;4281;45.772;12.852;2023-04-07T03:12:09;12.60;;;10.63;;
8488;SDS011;4281;45.772;12.852;2023-04-07T03:14:37;11.03;;;9.93;;
8488;SDS011;4281;45.772;12.852;2023-04-07T03:17:05;11.43;;;9.67;;
8488;SDS011;4281;45.772;12.852;2023-04-07T03:19:33;11.40;;;10.20;;
8488;SDS011;4281;45.772;12.852;2023-04-07T03:22:00;11.57;;;10.07;;
8488;SDS011;4281;45.772;12.852;2023-04-07T03:24:29;10.83;;;9.37;;
8488;SDS011;4281;45.772;12.852;2023-04-07T03:26:57;11.93;;;10.33;;
8488;SDS011;4281;45.772;12.852;2023-04-07T03:29:25;10.67;;;9.50;;
8488;SDS011;4281;45.772;12.852;2023-04-07T03:31:53;12.13;;;9.83;;
8488;SDS011;4281;45.772;12.852;2023-04-07T03:34:20;12.60;;;10.67;;
8488;SDS011;4281;45.772;12.852;2023-04-07T03:36:48;11.93;;;10.73;;
8488;SDS011;4281;45.772;12.852;2023-04-07T03:39:16;12.07;;;10.80;;
8488;SDS011;4281;45.772;12.852;2023-04-07T03:41:45;12.90;;;11.10;;
8488;SDS011;4281;45.772;12.852;2023-04-07T03:44:13;13.87;;;10.87;;
8488;SDS011;4281;45.772;12.852;2023-04-07T03:46:41;12.57;;;10.73;;
8488;SDS011;4281;45.772;12.852;2023-04-07T03:49:10;12.43;;;10.87;;
8488;SDS011;4281;45.772;12.852;2023-04-07T03:51:38;12.90;;;11.60;;
8488;SDS011;4281;45.772;12.852;2023-04-07T03:54:06;14.27;;;11.13;;
8488;SDS011;4281;45.772;12.852;2023-04-07T03:56:34;11.73;;;10.50;;
8488;SDS011;4281;45.772;12.852;2023-04-07T03:59:04;12.90;;;11.10;;
8488;SDS011;4281;45.772;12.852;2023-04-07T04:01:32;14.10;;;11.30;;
8488;SDS011;4281;45.772;12.852;2023-04-07T04:03:59;12.27;;;10.83;;
8488;SDS011;4281;45.772;12.852;2023-04-07T04:06:27;12.80;;;11.03;;
8488;SDS011;4281;45.772;12.852;2023-04-07T04:08:56;14.30;;;11.27;;
8488;SDS011;4281;45.772;12.852;2023-04-07T04:11:24;14.83;;;11.00;;
8488;SDS011;4281;45.772;12.852;2023-04-07T04:13:52;14.83;;;12.20;;
8488;SDS011;4281;45.772;12.852;2023-04-07T04:16:22;13.00;;;10.97;;
8488;SDS011;4281;45.772;12.852;2023-04-07T04:18:50;13.07;;;11.00;;
8488;SDS011;4281;45.772;12.852;2023-04-07T04:21:17;13.03;;;11.67;;
8488;SDS011;4281;45.772;12.852;2023-04-07T04:23:45;13.73;;;11.80;;
8488;SDS011;4281;45.772;12.852;2023-04-07T04:26:13;14.17;;;11.83;;
8488;SDS011;4281;45.772;12.852;2023-04-07T04:28:41;12.57;;;10.13;;
8488;SDS011;4281;45.772;12.852;2023-04-07T04:31:09;12.37;;;11.07;;
8488;SDS011;4281;45.772;12.852;2023-04-07T04:33:38;13.40;;;11.23;;
8488;SDS011;4281;45.772;12.852;2023-04-07T04:36:06;13.13;;;10.60;;
8488;SDS011;4281;45.772;12.852;2023-04-07T04:38:34;12.37;;;10.77;;
8488;SDS011;4281;45.772;12.852;2023-04-07T04:41:02;12.47;;;11.17;;
8488;SDS011;4281;45.772;12.852;2023-04-07T04:43:32;13.03;;;11.30;;
8488;SDS011;4281;45.772;12.852;2023-04-07T04:46:00;11.83;;;10.57;;
8488;SDS011;4281;45.772;12.852;2023-04-07T04:48:27;14.93;;;11.37;;
8488;SDS011;4281;45.772;12.852;2023-04-07T04:50:57;12.50;;;10.40;;
8488;SDS011;4281;45.772;12.852;2023-04-07T04:53:24;14.30;;;10.97;;
8488;SDS011;4281;45.772;12.852;2023-04-07T04:55:52;12.80;;;10.93;;
8488;SDS011;4281;45.772;12.852;2023-04-07T04:58:21;12.23;;;9.87;;
8488;SDS011;4281;45.772;12.852;2023-04-07T05:00:49;14.10;;;10.67;;
8488;SDS011;4281;45.772;12.852;2023-04-07T05:03:17;14.23;;;10.53;;
8488;SDS011;4281;45.772;12.852;2023-04-07T05:05:46;13.77;;;11.23;;
8488;SDS011;4281;45.772;12.852;2023-04-07T05:08:15;11.70;;;10.50;;
8488;SDS011;4281;45.772;12.852;2023-04-07T05:10:43;13.33;;;11.03;;
8488;SDS011;4281;45.772;12.852;2023-04-07T05:13:11;12.47;;;10.83;;
8488;SDS011;4281;45.772;12.852;2023-04-07T05:15:39;11.87;;;10.67;;
8488;SDS011;4281;45.772;12.852;2023-04-07T05:18:07;12.30;;;10.53;;
8488;SDS011;4281;45.772;12.852;2023-04-07T05:20:35;11.40;;;10.03;;
8488;SDS011;4281;45.772;12.852;2023-04-07T05:23:03;11.57;;;10.10;;
8488;SDS011;4281;45.772;12.852;2023-04-07T05:25:33;11.30;;;10.03;;
8488;SDS011;4281;45.772;12.852;2023-04-07T05:28:01;12.33;;;11.03;;
8488;SDS011;4281;45.772;12.852;2023-04-07T05:30:29;11.70;;;10.17;;
8488;SDS011;4281;45.772;12.852;2023-04-07T05:32:57;11.90;;;10.47;;
8488;SDS011;4281;45.772;12.852;2023-04-07T05:35:24;11.67;;;10.43;;
8488;SDS011;4281;45.772;12.852;2023-04-07T05:37:52;13.13;;;11.03;;
8488;SDS011;4281;45.772;12.852;2023-04-07T05:40:20;12.30;;;10.30;;
8488;SDS011;4281;45.772;12.852;2023-04-07T05:42:49;12.00;;;10.20;;
8488;SDS011;4281;45.772;12.852;2023-04-07T05:45:17;11.57;;;10.27;;
8488;SDS011;4281;45.772;12.852;2023-04-07T05:47:45;11.23;;;10.07;;
8488;SDS011;4281;45.772;12.852;2023-04-07T05:50:15;13.00;;;10.07;;
8488;SDS011;4281;45.772;12.852;2023-04-07T05:52:43;13.17;;;10.47;;
8488;SDS011;4281;45.772;12.852;2023-04-07T05:55:11;11.20;;;10.00;;
8488;SDS011;4281;45.772;12.852;2023-04-07T05:57:39;11.17;;;9.97;;
8488;SDS011;4281;45.772;12.852;2023-04-07T06:00:09;12.53;;;10.53;;
8488;SDS011;4281;45.772;12.852;2023-04-07T06:02:38;12.00;;;10.50;;
8488;SDS011;4281;45.772;12.852;2023-04-07T06:05:06;12.07;;;10.00;;
8488;SDS011;4281;45.772;12.852;2023-04-07T06:07:34;12.93;;;10.07;;
8488;SDS011;4281;45.772;12.852;2023-04-07T06:10:02;11.93;;;9.70;;
8488;SDS011;4281;45.772;12.852;2023-04-07T06:12:30;10.70;;;9.60;;
8488;SDS011;4281;45.772;12.852;2023-04-07T06:14:58;12.53;;;10.10;;
8488;SDS011;4281;45.772;12.852;2023-04-07T06:17:27;12.87;;;9.97;;
8488;SDS011;4281;45.772;12.852;2023-04-07T06:19:55;10.83;;;9.73;;
8488;SDS011;4281;45.772;12.852;2023-04-07T06:22:23;11.47;;;10.17;;
8488;SDS011;4281;45.772;12.852;2023-04-07T06:24:51;10.40;;;9.30;;
8488;SDS011;4281;45.772;12.852;2023-04-07T06:27:20;12.10;;;10.30;;
8488;SDS011;4281;45.772;12.852;2023-04-07T06:29:48;12.20;;;9.40;;
8488;SDS011;4281;45.772;12.852;2023-04-07T06:32:15;12.00;;;10.37;;
8488;SDS011;4281;45.772;12.852;2023-04-07T06:34:45;12.27;;;9.60;;
8488;SDS011;4281;45.772;12.852;2023-04-07T06:37:13;10.63;;;9.53;;
8488;SDS011;4281;45.772;12.852;2023-04-07T06:39:42;10.00;;;9.00;;
8488;SDS011;4281;45.772;12.852;2023-04-07T06:42:10;10.23;;;9.10;;
8488;SDS011;4281;45.772;12.852;2023-04-07T06:44:38;10.33;;;8.80;;
8488;SDS011;4281;45.772;12.852;2023-04-07T06:47:06;10.60;;;9.57;;
8488;SDS011;4281;45.772;12.852;2023-04-07T06:49:34;10.70;;;9.53;;
8488;SDS011;4281;45.772;12.852;2023-04-07T06:52:05;10.87;;;9.77;;
8488;SDS011;4281;45.772;12.852;2023-04-07T06:54:33;10.73;;;9.63;;
8488;SDS011;4281;45.772;12.852;2023-04-07T06:57:00;10.47;;;9.27;;
8488;SDS011;4281;45.772;12.852;2023-04-07T06:59:28;11.37;;;9.23;;
8488;SDS011;4281;45.772;12.852;2023-04-07T07:01:56;10.50;;;9.40;;
8488;SDS011;4281;45.772;12.852;2023-04-07T07:04:24;12.60;;;9.20;;
8488;SDS011;4281;45.772;12.852;2023-04-07T07:06:52;11.40;;;10.27;;
8488;SDS011;4281;45.772;12.852;2023-04-07T07:09:22;11.87;;;10.53;;
8488;SDS011;4281;45.772;12.852;2023-04-07T07:11:51;12.87;;;9.67;;
8488;SDS011;4281;45.772;12.852;2023-04-07T07:14:19;12.13;;;10.50;;
8488;SDS011;4281;45.772;12.852;2023-04-07T07:16:47;10.60;;;9.50;;
8488;SDS011;4281;45.772;12.852;2023-04-07T07:19:15;10.87;;;9.77;;
8488;SDS011;4281;45.772;12.852;2023-04-07T07:21:44;13.83;;;11.00;;
8488;SDS011;4281;45.772;12.852;2023-04-07T07:24:12;9.87;;;8.87;;
8488;SDS011;4281;45.772;12.852;2023-04-07T07:26:42;10.57;;;9.47;;
8488;SDS011;4281;45.772;12.852;2023-04-07T07:29:11;10.17;;;9.07;;
8488;SDS011;4281;45.772;12.852;2023-04-07T07:31:38;11.23;;;10.07;;
8488;SDS011;4281;45.772;12.852;2023-04-07T07:34:06;10.67;;;9.57;;
8488;SDS011;4281;45.772;12.852;2023-04-07T07:36:34;9.90;;;8.97;;
8488;SDS011;4281;45.772;12.852;2023-04-07T07:39:02;10.23;;;9.13;;
8488;SDS011;4281;45.772;12.852;2023-04-07T07:41:30;10.03;;;9.00;;
8488;SDS011;4281;45.772;12.852;2023-04-07T07:43:59;9.43;;;8.30;;
8488;SDS011;4281;45.772;12.852;2023-04-07T07:46:27;11.03;;;9.10;;
8488;SDS011;4281;45.772;12.852;2023-04-07T07:48:55;10.13;;;8.37;;
8488;SDS011;4281;45.772;12.852;2023-04-07T07:51:23;10.17;;;9.03;;
8488;SDS011;4281;45.772;12.852;2023-04-07T07:53:50;9.40;;;8.50;;
8488;SDS011;4281;45.772;12.852;2023-04-07T07:56:19;10.00;;;9.00;;
8488;SDS011;4281;45.772;12.852;2023-04-07T07:58:46;10.47;;;9.10;;
8488;SDS011;4281;45.772;12.852;2023-04-07T08:01:16;9.67;;;8.77;;
8488;SDS011;4281;45.772;12.852;2023-04-07T08:03:43;9.13;;;8.23;;
8488;SDS011;4281;45.772;12.852;2023-04-07T08:06:12;9.63;;;8.73;;
8488;SDS011;4281;45.772;12.852;2023-04-07T08:08:40;10.03;;;9.03;;
8488;SDS011;4281;45.772;12.852;2023-04-07T08:11:08;9.53;;;8.53;;
8488;SDS011;4281;45.772;12.852;2023-04-07T08:13:35;10.43;;;9.43;;
8488;SDS011;4281;45.772;12.852;2023-04-07T08:16:03;11.67;;;10.00;;
8488;SDS011;4281;45.772;12.852;2023-04-07T08:18:34;10.50;;;9.53;;
8488;SDS011;4281;45.772;12.852;2023-04-07T08:21:02;9.50;;;8.60;;
8488;SDS011;4281;45.772;12.852;2023-04-07T08:23:31;9.10;;;8.20;;
8488;SDS011;4281;45.772;12.852;2023-04-07T08:25:58;9.47;;;8.57;;
8488;SDS011;4281;45.772;12.852;2023-04-07T08:28:27;9.40;;;8.50;;
8488;SDS011;4281;45.772;12.852;2023-04-07T08:30:55;9.73;;;8.80;;
8488;SDS011;4281;45.772;12.852;2023-04-07T08:33:23;9.20;;;8.30;;
8488;SDS011;4281;45.772;12.852;2023-04-07T08:35:53;10.03;;;9.03;;
8488;SDS011;4281;45.772;12.852;2023-04-07T08:38:22;10.40;;;9.47;;
8488;SDS011;4281;45.772;12.852;2023-04-07T08:40:51;9.33;;;8.43;;
8488;SDS011;4281;45.772;12.852;2023-04-07T08:43:21;9.53;;;8.53;;
8488;SDS011;4281;45.772;12.852;2023-04-07T08:45:49;10.27;;;9.27;;
8488;SDS011;4281;45.772;12.852;2023-04-07T08:48:19;9.40;;;8.50;;
8488;SDS011;4281;45.772;12.852;2023-04-07T08:50:51;10.10;;;9.20;;
8488;SDS011;4281;45.772;12.852;2023-04-07T08:53:23;9.90;;;8.90;;
8488;SDS011;4281;45.772;12.852;2023-04-07T08:55:54;9.53;;;8.63;;
8488;SDS011;4281;45.772;12.852;2023-04-07T08:58:22;11.17;;;10.07;;
8488;SDS011;4281;45.772;12.852;2023-04-07T09:00:50;10.27;;;9.37;;
8488;SDS011;4281;45.772;12.852;2023-04-07T09:03:18;9.47;;;8.57;;
8488;SDS011;4281;45.772;12.852;2023-04-07T09:05:46;9.50;;;8.50;;
8488;SDS011;4281;45.772;12.852;2023-04-07T09:08:18;10.60;;;9.60;;
8488;SDS011;4281;45.772;12.852;2023-04-07T09:10:45;11.30;;;10.30;;
8488;SDS011;4281;45.772;12.852;2023-04-07T09:13:13;11.13;;;10.13;;
8488;SDS011;4281;45.772;12.852;2023-04-07T09:15:41;10.40;;;9.43;;
8488;SDS011;4281;45.772;12.852;2023-04-07T09:18:09;9.33;;;8.43;;
8488;SDS011;4281;45.772;12.852;2023-04-07T09:23:28;10.37;;;9.27;;
8488;SDS011;4281;45.772;12.852;2023-04-07T09:25:57;11.33;;;9.50;;
8488;SDS011;4281;45.772;12.852;2023-04-07T09:28:38;11.43;;;10.33;;
8488;SDS011;4281;45.772;12.852;2023-04-07T09:31:07;10.80;;;9.80;;
8488;SDS011;4281;45.772;12.852;2023-04-07T09:33:35;11.00;;;10.00;;
8488;SDS011;4281;45.772;12.852;2023-04-07T09:36:03;9.57;;;8.73;;
8488;SDS011;4281;45.772;12.852;2023-04-07T09:38:34;10.10;;;9.10;;
8488;SDS011;4281;45.772;12.852;2023-04-07T09:41:07;9.73;;;8.80;;
8488;SDS011;4281;45.772;12.852;2023-04-07T09:43:36;9.67;;;8.70;;
8488;SDS011;4281;45.772;12.852;2023-04-07T09:46:06;9.63;;;8.70;;
8488;SDS011;4281;45.772;12.852;2023-04-07T09:48:35;9.97;;;9.07;;
8488;SDS011;4281;45.772;12.852;2023-04-07T09:51:04;9.53;;;8.63;;
8488;SDS011;4281;45.772;12.852;2023-04-07T09:56:21;9.53;;;8.67;;
8488;SDS011;4281;45.772;12.852;2023-04-07T09:58:49;8.60;;;7.80;;
8488;SDS011;4281;45.772;12.852;2023-04-07T10:01:19;8.50;;;7.67;;
8488;SDS011;4281;45.772;12.852;2023-04-07T10:03:48;8.87;;;7.97;;
8488;SDS011;4281;45.772;12.852;2023-04-07T10:06:18;8.33;;;7.63;;
8488;SDS011;4281;45.772;12.852;2023-04-07T10:08:45;8.60;;;7.90;;
8488;SDS011;4281;45.772;12.852;2023-04-07T10:11:15;8.70;;;7.90;;
8488;SDS011;4281;45.772;12.852;2023-04-07T10:13:43;7.47;;;6.70;;
8488;SDS011;4281;45.772;12.852;2023-04-07T10:16:11;7.53;;;6.83;;
8488;SDS011;4281;45.772;12.852;2023-04-07T10:18:39;7.40;;;6.80;;
8488;SDS011;4281;45.772;12.852;2023-04-07T10:21:07;7.80;;;7.03;;
8488;SDS011;4281;45.772;12.852;2023-04-07T10:23:46;8.13;;;7.27;;
8488;SDS011;4281;45.772;12.852;2023-04-07T10:26:18;8.97;;;6.70;;
8488;SDS011;4281;45.772;12.852;2023-04-07T10:28:52;7.77;;;7.07;;
8488;SDS011;4281;45.772;12.852;2023-04-07T10:31:22;7.57;;;6.87;;
8488;SDS011;4281;45.772;12.852;2023-04-07T10:33:51;8.43;;;7.73;;
8488;SDS011;4281;45.772;12.852;2023-04-07T10:36:21;7.83;;;7.13;;
8488;SDS011;4281;45.772;12.852;2023-04-07T10:41:46;6.87;;;6.23;;
8488;SDS011;4281;45.772;12.852;2023-04-07T10:47:15;8.83;;;6.97;;
8488;SDS011;4281;45.772;12.852;2023-04-07T10:52:45;6.03;;;5.53;;
8488;SDS011;4281;45.772;12.852;2023-04-07T10:55:27;6.50;;;5.90;;
8488;SDS011;4281;45.772;12.852;2023-04-07T11:03:52;7.47;;;6.63;;
8488;SDS011;4281;45.772;12.852;2023-04-07T11:06:24;6.93;;;6.30;;
8488;SDS011;4281;45.772;12.852;2023-04-07T11:08:53;7.33;;;6.57;;
8488;SDS011;4281;45.772;12.852;2023-04-07T11:14:24;7.47;;;6.77;;
8488;SDS011;4281;45.772;12.852;2023-04-07T11:16:53;8.70;;;7.90;;
8488;SDS011;4281;45.772;12.852;2023-04-07T11:19:21;7.73;;;7.03;;
8488;SDS011;4281;45.772;12.852;2023-04-07T11:21:49;8.27;;;7.47;;
8488;SDS011;4281;45.772;12.852;2023-04-07T11:24:33;7.40;;;6.70;;
8488;SDS011;4281;45.772;12.852;2023-04-07T11:27:03;7.67;;;6.87;;
8488;SDS011;4281;45.772;12.852;2023-04-07T11:29:33;7.30;;;6.70;;
8488;SDS011;4281;45.772;12.852;2023-04-07T11:32:01;7.23;;;6.53;;
8488;SDS011;4281;45.772;12.852;2023-04-07T11:34:29;8.33;;;7.63;;
8488;SDS011;4281;45.772;12.852;2023-04-07T11:39:50;8.53;;;7.73;;
8488;SDS011;4281;45.772;12.852;2023-04-07T11:42:29;9.07;;;8.27;;
8488;SDS011;4281;45.772;12.852;2023-04-07T11:44:59;8.70;;;7.90;;
8488;SDS011;4281;45.772;12.852;2023-04-07T11:47:33;8.27;;;7.33;;
8488;SDS011;4281;45.772;12.852;2023-04-07T11:50:04;8.67;;;7.87;;
8488;SDS011;4281;45.772;12.852;2023-04-07T11:52:39;8.73;;;7.93;;
8488;SDS011;4281;45.772;12.852;2023-04-07T11:55:15;9.10;;;8.30;;
8488;SDS011;4281;45.772;12.852;2023-04-07T11:57:47;11.37;;;10.27;;
8488;SDS011;4281;45.772;12.852;2023-04-07T12:00:18;11.77;;;10.30;;
8488;SDS011;4281;45.772;12.852;2023-04-07T12:02:46;12.50;;;10.03;;
8488;SDS011;4281;45.772;12.852;2023-04-07T12:05:14;12.23;;;10.67;;
8488;SDS011;4281;45.772;12.852;2023-04-07T12:07:51;12.23;;;10.13;;
8488;SDS011;4281;45.772;12.852;2023-04-07T12:10:20;11.53;;;10.43;;
8488;SDS011;4281;45.772;12.852;2023-04-07T12:12:48;10.93;;;9.93;;
8488;SDS011;4281;45.772;12.852;2023-04-07T12:15:18;13.50;;;12.10;;
8488;SDS011;4281;45.772;12.852;2023-04-07T12:17:47;11.23;;;10.13;;
8488;SDS011;4281;45.772;12.852;2023-04-07T12:20:16;14.93;;;11.53;;
8488;SDS011;4281;45.772;12.852;2023-04-07T12:22:44;10.90;;;9.80;;
8488;SDS011;4281;45.772;12.852;2023-04-07T12:25:11;10.80;;;9.70;;
8488;SDS011;4281;45.772;12.852;2023-04-07T12:27:39;12.87;;;10.43;;
8488;SDS011;4281;45.772;12.852;2023-04-07T12:30:09;13.00;;;10.17;;
8488;SDS011;4281;45.772;12.852;2023-04-07T12:32:39;11.70;;;10.07;;
8488;SDS011;4281;45.772;12.852;2023-04-07T12:35:07;10.83;;;9.73;;
8488;SDS011;4281;45.772;12.852;2023-04-07T12:37:35;11.13;;;10.03;;
8488;SDS011;4281;45.772;12.852;2023-04-07T12:40:05;10.43;;;9.33;;
8488;SDS011;4281;45.772;12.852;2023-04-07T12:42:34;10.07;;;9.03;;
8488;SDS011;4281;45.772;12.852;2023-04-07T12:45:03;12.77;;;10.00;;
8488;SDS011;4281;45.772;12.852;2023-04-07T12:47:31;11.10;;;9.90;;
8488;SDS011;4281;45.772;12.852;2023-04-07T12:50:01;9.97;;;9.03;;
8488;SDS011;4281;45.772;12.852;2023-04-07T12:52:29;10.47;;;9.37;;
8488;SDS011;4281;45.772;12.852;2023-04-07T12:54:57;10.70;;;9.60;;
8488;SDS011;4281;45.772;12.852;2023-04-07T12:57:25;11.20;;;9.97;;
8488;SDS011;4281;45.772;12.852;2023-04-07T12:59:53;10.93;;;9.73;;
8488;SDS011;4281;45.772;12.852;2023-04-07T13:02:21;11.57;;;10.37;;
8488;SDS011;4281;45.772;12.852;2023-04-07T13:04:50;11.87;;;10.63;;
8488;SDS011;4281;45.772;12.852;2023-04-07T13:07:19;11.03;;;9.93;;
8488;SDS011;4281;45.772;12.852;2023-04-07T13:09:47;11.17;;;10.07;;
8488;SDS011;4281;45.772;12.852;2023-04-07T13:12:15;11.33;;;10.13;;
8488;SDS011;4281;45.772;12.852;2023-04-07T13:14:42;11.90;;;10.67;;
8488;SDS011;4281;45.772;12.852;2023-04-07T13:17:24;12.33;;;11.03;;
8488;SDS011;4281;45.772;12.852;2023-04-07T13:19:54;13.83;;;12.40;;
8488;SDS011;4281;45.772;12.852;2023-04-07T13:22:24;14.43;;;12.40;;
8488;SDS011;4281;45.772;12.852;2023-04-07T13:24:52;12.30;;;11.10;;
8488;SDS011;4281;45.772;12.852;2023-04-07T13:27:19;11.30;;;10.00;;
8488;SDS011;4281;45.772;12.852;2023-04-07T13:29:47;12.20;;;10.87;;
8488;SDS011;4281;45.772;12.852;2023-04-07T13:32:15;12.77;;;11.47;;
8488;SDS011;4281;45.772;12.852;2023-04-07T13:34:43;11.87;;;10.67;;
8488;SDS011;4281;45.772;12.852;2023-04-07T13:37:11;12.43;;;11.07;;
8488;SDS011;4281;45.772;12.852;2023-04-07T13:39:41;11.90;;;10.70;;
8488;SDS011;4281;45.772;12.852;2023-04-07T13:42:08;12.53;;;11.23;;
8488;SDS011;4281;45.772;12.852;2023-04-07T13:44:38;12.97;;;11.67;;
8488;SDS011;4281;45.772;12.852;2023-04-07T13:47:08;14.33;;;12.93;;
8488;SDS011;4281;45.772;12.852;2023-04-07T13:49:37;12.60;;;11.40;;
8488;SDS011;4281;45.772;12.852;2023-04-07T13:52:05;13.60;;;12.30;;
8488;SDS011;4281;45.772;12.852;2023-04-07T13:54:32;13.27;;;11.93;;
8488;SDS011;4281;45.772;12.852;2023-04-07T13:57:02;13.00;;;11.70;;
8488;SDS011;4281;45.772;12.852;2023-04-07T13:59:29;11.70;;;10.50;;
8488;SDS011;4281;45.772;12.852;2023-04-07T14:01:57;12.47;;;11.27;;
8488;SDS011;4281;45.772;12.852;2023-04-07T14:04:25;12.83;;;11.30;;
8488;SDS011;4281;45.772;12.852;2023-04-07T14:06:54;12.83;;;11.43;;
8488;SDS011;4281;45.772;12.852;2023-04-07T14:09:22;13.10;;;11.80;;
8488;SDS011;4281;45.772;12.852;2023-04-07T14:11:50;14.63;;;12.50;;
8488;SDS011;4281;45.772;12.852;2023-04-07T14:14:19;12.33;;;11.13;;
8488;SDS011;4281;45.772;12.852;2023-04-07T14:16:47;13.50;;;12.10;;
8488;SDS011;4281;45.772;12.852;2023-04-07T14:19:19;12.90;;;11.60;;
8488;SDS011;4281;45.772;12.852;2023-04-07T14:21:47;12.90;;;11.07;;
8488;SDS011;4281;45.772;12.852;2023-04-07T14:24:15;14.03;;;12.63;;
8488;SDS011;4281;45.772;12.852;2023-04-07T14:26:43;13.03;;;11.63;;
8488;SDS011;4281;45.772;12.852;2023-04-07T14:29:11;13.43;;;12.13;;
8488;SDS011;4281;45.772;12.852;2023-04-07T14:31:41;12.17;;;10.97;;
8488;SDS011;4281;45.772;12.852;2023-04-07T14:34:10;12.87;;;11.57;;
8488;SDS011;4281;45.772;12.852;2023-04-07T14:36:38;11.53;;;10.33;;
8488;SDS011;4281;45.772;12.852;2023-04-07T14:39:06;11.40;;;10.30;;
8488;SDS011;4281;45.772;12.852;2023-04-07T14:41:34;12.27;;;10.97;;
8488;SDS011;4281;45.772;12.852;2023-04-07T14:44:02;11.47;;;10.33;;
8488;SDS011;4281;45.772;12.852;2023-04-07T14:46:29;11.80;;;10.60;;
8488;SDS011;4281;45.772;12.852;2023-04-07T14:48:58;11.37;;;10.27;;
8488;SDS011;4281;45.772;12.852;2023-04-07T14:51:26;11.30;;;10.13;;
8488;SDS011;4281;45.772;12.852;2023-04-07T14:53:54;11.70;;;10.50;;
8488;SDS011;4281;45.772;12.852;2023-04-07T14:56:23;11.33;;;10.20;;
8488;SDS011;4281;45.772;12.852;2023-04-07T14:58:50;10.50;;;9.47;;
8488;SDS011;4281;45.772;12.852;2023-04-07T15:01:19;11.57;;;10.37;;
8488;SDS011;4281;45.772;12.852;2023-04-07T15:03:49;10.83;;;9.73;;
8488;SDS011;4281;45.772;12.852;2023-04-07T15:06:19;11.53;;;10.33;;
8488;SDS011;4281;45.772;12.852;2023-04-07T15:08:48;11.03;;;9.73;;
8488;SDS011;4281;45.772;12.852;2023-04-07T15:11:16;11.50;;;10.30;;
8488;SDS011;4281;45.772;12.852;2023-04-07T15:13:44;11.43;;;10.07;;
8488;SDS011;4281;45.772;12.852;2023-04-07T15:16:13;9.93;;;9.00;;
8488;SDS011;4281;45.772;12.852;2023-04-07T15:18:42;10.70;;;9.60;;
8488;SDS011;4281;45.772;12.852;2023-04-07T15:21:12;9.87;;;8.87;;
8488;SDS011;4281;45.772;12.852;2023-04-07T15:23:42;9.87;;;8.87;;
8488;SDS011;4281;45.772;12.852;2023-04-07T15:26:12;10.13;;;9.10;;